createdAt,value
2018-05-06T00:00:05.743Z,51.75
2018-05-06T00:00:46.262Z,51.75
2018-05-06T00:01:26.791Z,51.95
2018-05-06T00:02:07.324Z,51.75
2018-05-06T00:02:47.849Z,51.95
2018-05-06T00:03:28.376Z,51.75
2018-05-06T00:04:08.900Z,51.85
2018-05-06T00:04:49.426Z,51.95
2018-05-06T00:05:29.956Z,51.85
2018-05-06T00:06:10.487Z,52.04
2018-05-06T00:06:51.004Z,51.75
2018-05-06T00:07:31.531Z,51.75
2018-05-06T00:08:12.057Z,51.75
2018-05-06T00:08:52.586Z,51.75
2018-05-06T00:09:33.112Z,51.75
2018-05-06T00:10:13.643Z,51.46
2018-05-06T00:10:54.171Z,51.75
2018-05-06T00:11:34.696Z,51.75
2018-05-06T00:12:15.228Z,51.65
2018-05-06T00:12:55.746Z,51.44
2018-05-06T00:13:36.268Z,51.75
2018-05-06T00:14:16.801Z,51.75
2018-05-06T00:14:57.325Z,51.63
2018-05-06T00:15:37.849Z,51.63
2018-05-06T00:16:18.381Z,51.73
2018-05-06T00:16:58.911Z,51.54
2018-05-06T00:17:39.434Z,52.01
2018-05-06T00:18:19.960Z,52.2
2018-05-06T00:19:00.496Z,51.92
2018-05-06T00:19:41.033Z,52.01
2018-05-06T00:20:21.545Z,52.11
2018-05-06T00:21:02.061Z,52.2
2018-05-06T00:21:42.584Z,51.73
2018-05-06T00:22:23.110Z,51.95
2018-05-06T00:23:03.631Z,51.82
2018-05-06T00:23:44.159Z,51.92
2018-05-06T00:24:24.686Z,52.01
2018-05-06T00:25:05.219Z,51.92
2018-05-06T00:25:45.739Z,51.92
2018-05-06T00:26:26.254Z,51.92
2018-05-06T00:27:06.786Z,51.92
2018-05-06T00:27:47.305Z,52.01
2018-05-06T00:28:27.830Z,51.92
2018-05-06T00:29:08.378Z,51.92
2018-05-06T00:29:48.879Z,52.01
2018-05-06T00:30:29.385Z,51.92
2018-05-06T00:31:09.910Z,51.92
2018-05-06T00:31:50.422Z,52.01
2018-05-06T00:32:30.945Z,51.92
2018-05-06T00:33:11.445Z,51.92
2018-05-06T00:33:51.971Z,51.92
2018-05-06T00:34:32.461Z,51.92
2018-05-06T00:35:12.981Z,51.92
2018-05-06T00:35:53.549Z,51.82
2018-05-06T00:36:34.020Z,51.82
2018-05-06T00:37:14.552Z,51.92
2018-05-06T00:37:55.074Z,51.82
2018-05-06T00:38:35.640Z,51.63
2018-05-06T00:39:16.113Z,51.73
2018-05-06T00:39:56.640Z,51.73
2018-05-06T00:40:37.152Z,51.63
2018-05-06T00:41:17.665Z,51.82
2018-05-06T00:41:58.207Z,51.82
2018-05-06T00:42:38.708Z,51.73
2018-05-06T00:43:19.217Z,51.82
2018-05-06T00:43:59.743Z,51.82
2018-05-06T00:44:40.272Z,51.82
2018-05-06T00:45:20.805Z,51.82
2018-05-06T00:46:01.330Z,51.82
2018-05-06T00:46:41.853Z,51.82
2018-05-06T00:47:22.373Z,51.73
2018-05-06T00:48:02.903Z,51.92
2018-05-06T00:48:43.426Z,52.11
2018-05-06T00:49:23.973Z,51.73
2018-05-06T00:50:04.500Z,51.73
2018-05-06T00:50:45.050Z,51.82
2018-05-06T00:51:25.583Z,51.92
2018-05-06T00:52:06.107Z,51.82
2018-05-06T00:52:46.633Z,51.82
2018-05-06T00:53:27.520Z,51.82
2018-05-06T00:54:08.033Z,52.01
2018-05-06T00:54:48.589Z,51.92
2018-05-06T00:55:29.194Z,52.11
2018-05-06T00:56:09.648Z,52.01
2018-05-06T00:56:50.177Z,52.01
2018-05-06T00:57:30.711Z,52.11
2018-05-06T00:58:11.233Z,52.01
2018-05-06T00:58:51.756Z,51.92
2018-05-06T00:59:32.265Z,52.01
2018-05-06T01:00:12.798Z,52.01
2018-05-06T01:00:53.306Z,52.01
2018-05-06T01:01:33.846Z,51.92
2018-05-06T01:02:14.351Z,51.92
2018-05-06T01:02:54.880Z,52.01
2018-05-06T01:03:35.402Z,52.01
2018-05-06T01:04:15.929Z,52.01
2018-05-06T01:04:56.424Z,52.01
2018-05-06T01:05:36.922Z,51.82
2018-05-06T01:06:17.439Z,52.11
2018-05-06T01:06:57.967Z,52.2
2018-05-06T01:07:38.487Z,52.01
2018-05-06T01:08:19.016Z,52.2
2018-05-06T01:08:59.536Z,52.2
2018-05-06T01:09:40.142Z,52.11
2018-05-06T01:10:20.587Z,52.3
2018-05-06T01:11:01.110Z,52.11
2018-05-06T01:11:41.628Z,52.11
2018-05-06T01:12:22.149Z,52.3
2018-05-06T01:13:02.666Z,52.11
2018-05-06T01:13:43.185Z,52.11
2018-05-06T01:14:23.719Z,52.2
2018-05-06T01:15:04.249Z,52.2
2018-05-06T01:15:44.779Z,52.11
2018-05-06T01:16:25.300Z,52.01
2018-05-06T01:17:05.830Z,51.99
2018-05-06T01:17:46.364Z,52.01
2018-05-06T01:18:26.879Z,52.11
2018-05-06T01:19:07.402Z,52.11
2018-05-06T01:19:47.933Z,52.11
2018-05-06T01:20:28.455Z,52.01
2018-05-06T01:21:08.967Z,52.09
2018-05-06T01:21:49.483Z,52.18
2018-05-06T01:22:30.006Z,52.11
2018-05-06T01:23:10.533Z,51.99
2018-05-06T01:23:51.053Z,52.18
2018-05-06T01:24:31.574Z,52.28
2018-05-06T01:25:12.097Z,52.2
2018-05-06T01:25:52.628Z,52.28
2018-05-06T01:26:33.155Z,52.37
2018-05-06T01:27:13.671Z,52.2
2018-05-06T01:27:54.192Z,52.85
2018-05-06T01:28:34.727Z,52.4
2018-05-06T01:29:15.247Z,52.78
2018-05-06T01:29:55.768Z,52.37
2018-05-06T01:30:36.290Z,52.75
2018-05-06T01:31:16.808Z,52.66
2018-05-06T01:31:57.331Z,52.66
2018-05-06T01:32:37.854Z,52.75
2018-05-06T01:33:18.381Z,52.85
2018-05-06T01:33:58.884Z,52.85
2018-05-06T01:34:39.409Z,52.75
2018-05-06T01:35:19.913Z,52.85
2018-05-06T01:36:00.421Z,52.66
2018-05-06T01:36:40.897Z,52.85
2018-05-06T01:37:21.377Z,52.47
2018-05-06T01:38:01.900Z,52.37
2018-05-06T01:38:42.437Z,52.37
2018-05-06T01:39:22.942Z,52.47
2018-05-06T01:40:03.457Z,52.75
2018-05-06T01:40:44.002Z,52.47
2018-05-06T01:41:24.545Z,52.75
2018-05-06T01:42:05.064Z,52.47
2018-05-06T01:42:45.596Z,52.56
2018-05-06T01:43:26.119Z,52.66
2018-05-06T01:44:06.643Z,52.66
2018-05-06T01:44:47.165Z,52.75
2018-05-06T01:45:27.695Z,52.66
2018-05-06T01:46:08.207Z,52.95
2018-05-06T01:46:48.743Z,52.75
2018-05-06T01:47:29.257Z,52.75
2018-05-06T01:48:09.782Z,52.95
2018-05-06T01:48:50.301Z,52.66
2018-05-06T01:49:30.831Z,52.95
2018-05-06T01:50:11.364Z,52.95
2018-05-06T01:50:51.886Z,52.75
2018-05-06T01:51:32.416Z,53.04
2018-05-06T01:52:12.933Z,52.95
2018-05-06T01:52:53.459Z,52.95
2018-05-06T01:53:34.262Z,52.66
2018-05-06T01:54:14.789Z,52.66
2018-05-06T01:54:55.306Z,52.75
2018-05-06T01:55:35.829Z,52.75
2018-05-06T01:56:16.359Z,52.73
2018-05-06T01:56:56.883Z,52.83
2018-05-06T01:57:37.380Z,52.75
2018-05-06T01:58:17.908Z,52.75
2018-05-06T01:58:58.437Z,52.54
2018-05-06T01:59:38.965Z,52.92
2018-05-06T02:00:19.493Z,52.85
2018-05-06T02:01:00.013Z,52.63
2018-05-06T02:01:40.545Z,52.66
2018-05-06T02:02:21.061Z,52.66
2018-05-06T02:03:01.575Z,52.66
2018-05-06T02:03:42.109Z,52.75
2018-05-06T02:04:22.627Z,52.66
2018-05-06T02:05:03.158Z,52.54
2018-05-06T02:05:43.677Z,52.66
2018-05-06T02:06:24.202Z,52.54
2018-05-06T02:07:04.725Z,52.63
2018-05-06T02:07:45.249Z,52.54
2018-05-06T02:08:25.778Z,52.73
2018-05-06T02:09:06.304Z,52.54
2018-05-06T02:09:46.821Z,52.63
2018-05-06T02:10:27.347Z,52.73
2018-05-06T02:11:07.874Z,52.92
2018-05-06T02:11:48.401Z,52.73
2018-05-06T02:12:28.914Z,52.73
2018-05-06T02:13:09.435Z,52.83
2018-05-06T02:13:49.960Z,52.83
2018-05-06T02:14:30.490Z,52.63
2018-05-06T02:15:11.014Z,52.92
2018-05-06T02:15:51.540Z,52.63
2018-05-06T02:16:32.077Z,52.83
2018-05-06T02:17:12.604Z,53.2
2018-05-06T02:17:53.124Z,53.2
2018-05-06T02:18:33.646Z,52.54
2018-05-06T02:19:14.169Z,52.92
2018-05-06T02:19:54.696Z,52.83
2018-05-06T02:20:35.224Z,52.83
2018-05-06T02:21:15.740Z,52.63
2018-05-06T02:21:56.271Z,52.92
2018-05-06T02:22:36.800Z,52.63
2018-05-06T02:23:17.330Z,53.3
2018-05-06T02:23:57.840Z,52.92
2018-05-06T02:24:38.362Z,52.63
2018-05-06T02:25:18.888Z,52.63
2018-05-06T02:25:59.408Z,52.83
2018-05-06T02:26:39.934Z,52.54
2018-05-06T02:27:20.460Z,52.92
2018-05-06T02:28:00.976Z,52.83
2018-05-06T02:28:41.516Z,52.92
2018-05-06T02:29:22.035Z,53.02
2018-05-06T02:30:02.608Z,53.11
2018-05-06T02:30:43.097Z,53.11
2018-05-06T02:31:23.612Z,53.3
2018-05-06T02:32:04.128Z,53.11
2018-05-06T02:32:44.659Z,53.11
2018-05-06T02:33:25.183Z,53.2
2018-05-06T02:34:05.704Z,53.3
2018-05-06T02:34:46.233Z,52.92
2018-05-06T02:35:26.744Z,53.11
2018-05-06T02:36:07.244Z,53.2
2018-05-06T02:36:47.779Z,52.92
2018-05-06T02:37:28.308Z,52.92
2018-05-06T02:38:08.813Z,53.11
2018-05-06T02:38:49.334Z,53.02
2018-05-06T02:39:29.860Z,53.02
2018-05-06T02:40:10.382Z,53.11
2018-05-06T02:40:50.901Z,52.73
2018-05-06T02:41:31.427Z,52.83
2018-05-06T02:42:11.957Z,53.11
2018-05-06T02:42:52.485Z,52.83
2018-05-06T02:43:32.999Z,53.08
2018-05-06T02:44:13.530Z,53.11
2018-05-06T02:44:54.045Z,53.08
2018-05-06T02:45:34.560Z,53.08
2018-05-06T02:46:15.090Z,52.99
2018-05-06T02:46:55.610Z,52.99
2018-05-06T02:47:36.125Z,52.89
2018-05-06T02:48:16.650Z,52.89
2018-05-06T02:48:57.171Z,52.99
2018-05-06T02:49:37.688Z,52.7
2018-05-06T02:50:18.210Z,52.8
2018-05-06T02:50:58.745Z,52.99
2018-05-06T02:51:39.270Z,52.8
2018-05-06T02:52:19.799Z,52.89
2018-05-06T02:53:00.319Z,52.89
2018-05-06T02:53:40.836Z,52.89
2018-05-06T02:54:21.368Z,52.99
2018-05-06T02:55:01.876Z,52.89
2018-05-06T02:55:42.394Z,52.99
2018-05-06T02:56:22.920Z,52.99
2018-05-06T02:57:03.439Z,52.8
2018-05-06T02:57:43.953Z,52.99
2018-05-06T02:58:24.454Z,52.99
2018-05-06T02:59:04.966Z,53.18
2018-05-06T02:59:45.497Z,52.8
2018-05-06T03:00:26.021Z,53.18
2018-05-06T03:01:06.546Z,53.28
2018-05-06T03:01:47.073Z,53.28
2018-05-06T03:02:27.600Z,52.89
2018-05-06T03:03:08.116Z,52.99
2018-05-06T03:03:48.636Z,52.99
2018-05-06T03:04:29.157Z,53.18
2018-05-06T03:05:09.680Z,52.99
2018-05-06T03:05:50.210Z,53.28
2018-05-06T03:06:30.734Z,53.08
2018-05-06T03:07:11.257Z,53.18
2018-05-06T03:07:51.783Z,53.08
2018-05-06T03:08:32.312Z,53.18
2018-05-06T03:09:12.821Z,53.08
2018-05-06T03:09:53.351Z,53.08
2018-05-06T03:10:33.879Z,53.28
2018-05-06T03:11:14.403Z,53.47
2018-05-06T03:11:54.921Z,53.18
2018-05-06T03:12:35.440Z,53.08
2018-05-06T03:13:15.969Z,52.99
2018-05-06T03:13:56.490Z,52.8
2018-05-06T03:14:37.013Z,53.08
2018-05-06T03:15:17.542Z,52.99
2018-05-06T03:15:58.058Z,52.99
2018-05-06T03:16:38.601Z,53.18
2018-05-06T03:17:19.107Z,53.08
2018-05-06T03:17:59.633Z,53.08
2018-05-06T03:18:40.159Z,53.08
2018-05-06T03:19:20.680Z,52.89
2018-05-06T03:20:01.208Z,52.96
2018-05-06T03:20:41.741Z,53.37
2018-05-06T03:21:22.267Z,53.44
2018-05-06T03:22:02.792Z,52.99
2018-05-06T03:22:43.316Z,52.8
2018-05-06T03:23:23.848Z,52.8
2018-05-06T03:24:04.366Z,53.16
2018-05-06T03:24:44.888Z,52.89
2018-05-06T03:25:25.408Z,53.06
2018-05-06T03:26:05.983Z,52.99
2018-05-06T03:26:46.457Z,53.34
2018-05-06T03:27:26.976Z,53.16
2018-05-06T03:28:07.500Z,52.96
2018-05-06T03:28:48.034Z,53.34
2018-05-06T03:29:28.554Z,53.44
2018-05-06T03:30:09.069Z,53.53
2018-05-06T03:30:49.593Z,53.53
2018-05-06T03:31:30.118Z,53.73
2018-05-06T03:32:10.650Z,53.63
2018-05-06T03:32:51.160Z,53.34
2018-05-06T03:33:31.690Z,53.63
2018-05-06T03:34:12.214Z,53.53
2018-05-06T03:34:52.748Z,53.25
2018-05-06T03:35:33.253Z,53.34
2018-05-06T03:36:13.768Z,53.63
2018-05-06T03:36:54.277Z,53.34
2018-05-06T03:37:34.802Z,53.44
2018-05-06T03:38:15.335Z,53.34
2018-05-06T03:38:55.842Z,53.34
2018-05-06T03:39:36.372Z,53.53
2018-05-06T03:40:16.920Z,53.34
2018-05-06T03:40:57.471Z,53.44
2018-05-06T03:41:37.999Z,53.44
2018-05-06T03:42:18.511Z,53.53
2018-05-06T03:42:59.031Z,53.53
2018-05-06T03:43:39.557Z,53.44
2018-05-06T03:44:20.082Z,53.44
2018-05-06T03:45:00.600Z,53.44
2018-05-06T03:45:41.125Z,53.34
2018-05-06T03:46:21.652Z,53.63
2018-05-06T03:47:02.170Z,53.73
2018-05-06T03:47:42.697Z,53.63
2018-05-06T03:48:23.223Z,53.34
2018-05-06T03:49:03.755Z,53.63
2018-05-06T03:49:44.276Z,53.25
2018-05-06T03:50:24.796Z,53.25
2018-05-06T03:51:05.326Z,53.34
2018-05-06T03:51:45.851Z,53.53
2018-05-06T03:52:26.374Z,53.44
2018-05-06T03:53:06.978Z,53.16
2018-05-06T03:53:47.430Z,52.96
2018-05-06T03:54:27.947Z,52.87
2018-05-06T03:55:08.470Z,53.06
2018-05-06T03:55:48.984Z,52.96
2018-05-06T03:56:29.515Z,53.06
2018-05-06T03:57:10.033Z,53.06
2018-05-06T03:57:50.570Z,52.77
2018-05-06T03:58:31.081Z,53.06
2018-05-06T03:59:11.607Z,53.06
2018-05-06T03:59:52.131Z,53.25
2018-05-06T04:00:32.665Z,53.16
2018-05-06T04:01:13.188Z,53.16
2018-05-06T04:01:53.718Z,53.06
2018-05-06T04:02:34.242Z,52.96
2018-05-06T04:03:14.767Z,53.06
2018-05-06T04:03:55.290Z,53.16
2018-05-06T04:04:35.774Z,52.96
2018-05-06T04:05:16.287Z,52.96
2018-05-06T04:05:56.810Z,53.25
2018-05-06T04:06:37.340Z,53.25
2018-05-06T04:07:17.852Z,53.25
2018-05-06T04:07:58.421Z,52.96
2018-05-06T04:08:38.949Z,52.77
2018-05-06T04:09:19.479Z,53.16
2018-05-06T04:10:00.010Z,52.87
2018-05-06T04:10:40.535Z,52.87
2018-05-06T04:11:21.057Z,52.87
2018-05-06T04:12:01.575Z,52.87
2018-05-06T04:12:42.109Z,52.87
2018-05-06T04:13:22.622Z,52.87
2018-05-06T04:14:03.142Z,53.06
2018-05-06T04:14:43.674Z,52.96
2018-05-06T04:15:24.198Z,53.06
2018-05-06T04:16:04.718Z,53.06
2018-05-06T04:16:45.245Z,53.06
2018-05-06T04:17:25.767Z,52.96
2018-05-06T04:18:06.290Z,52.58
2018-05-06T04:18:46.798Z,52.67
2018-05-06T04:19:27.335Z,52.58
2018-05-06T04:20:07.858Z,52.58
2018-05-06T04:20:48.378Z,52.58
2018-05-06T04:21:28.900Z,52.58
2018-05-06T04:22:09.432Z,52.87
2018-05-06T04:22:49.950Z,52.77
2018-05-06T04:23:30.480Z,52.96
2018-05-06T04:24:10.999Z,52.58
2018-05-06T04:24:51.525Z,52.87
2018-05-06T04:25:32.051Z,52.58
2018-05-06T04:26:12.569Z,52.58
2018-05-06T04:26:53.196Z,52.42
2018-05-06T04:27:33.612Z,52.29
2018-05-06T04:28:14.116Z,52.77
2018-05-06T04:28:54.638Z,52.58
2018-05-06T04:29:35.170Z,52.8
2018-05-06T04:30:15.708Z,52.58
2018-05-06T04:30:56.234Z,52.8
2018-05-06T04:31:36.749Z,52.22
2018-05-06T04:32:17.285Z,52.22
2018-05-06T04:32:57.810Z,52.22
2018-05-06T04:33:38.335Z,52.32
2018-05-06T04:34:18.858Z,52.03
2018-05-06T04:34:59.386Z,52.03
2018-05-06T04:35:39.898Z,52.13
2018-05-06T04:36:20.410Z,51.75
2018-05-06T04:37:00.947Z,51.93
2018-05-06T04:37:41.475Z,51.75
2018-05-06T04:38:21.998Z,51.75
2018-05-06T04:39:02.527Z,51.93
2018-05-06T04:39:43.054Z,51.65
2018-05-06T04:40:23.578Z,51.93
2018-05-06T04:41:04.102Z,51.56
2018-05-06T04:41:44.617Z,51.84
2018-05-06T04:42:25.137Z,51.75
2018-05-06T04:43:05.659Z,51.93
2018-05-06T04:43:46.178Z,51.87
2018-05-06T04:44:26.697Z,51.87
2018-05-06T04:45:07.230Z,51.97
2018-05-06T04:45:47.753Z,51.58
2018-05-06T04:46:28.275Z,51.48
2018-05-06T04:47:08.803Z,51.68
2018-05-06T04:47:49.317Z,51.87
2018-05-06T04:48:29.844Z,51.68
2018-05-06T04:49:10.368Z,51.77
2018-05-06T04:49:50.878Z,51.77
2018-05-06T04:50:31.404Z,51.87
2018-05-06T04:51:11.919Z,51.48
2018-05-06T04:51:52.533Z,51.29
2018-05-06T04:52:32.966Z,51.2
2018-05-06T04:53:13.479Z,51.29
2018-05-06T04:53:54.508Z,50.91
2018-05-06T04:54:35.046Z,51.32
2018-05-06T04:55:15.579Z,51.2
2018-05-06T04:55:56.094Z,51.48
2018-05-06T04:56:36.627Z,51.13
2018-05-06T04:57:17.152Z,51.13
2018-05-06T04:57:57.673Z,51.42
2018-05-06T04:58:38.199Z,51.32
2018-05-06T04:59:18.717Z,51.22
2018-05-06T04:59:59.241Z,51.32
2018-05-06T05:00:39.954Z,50.93
2018-05-06T05:01:20.339Z,51.03
2018-05-06T05:02:00.955Z,51.13
2018-05-06T05:02:41.587Z,51.03
2018-05-06T05:03:22.724Z,50.56
2018-05-06T05:04:03.456Z,50.84
2018-05-06T05:04:43.907Z,50.74
2018-05-06T05:05:24.427Z,50.65
2018-05-06T05:06:04.957Z,50.93
2018-05-06T05:06:45.486Z,50.74
2018-05-06T05:07:26.014Z,50.67
2018-05-06T05:08:06.540Z,50.74
2018-05-06T05:08:47.063Z,50.38
2018-05-06T05:09:27.642Z,50.58
2018-05-06T05:10:08.216Z,50.58
2018-05-06T05:10:48.745Z,50.48
2018-05-06T05:11:29.264Z,50.58
2018-05-06T05:12:09.794Z,50.29
2018-05-06T05:12:50.336Z,50.38
2018-05-06T05:13:30.856Z,50.38
2018-05-06T05:14:11.372Z,50.38
2018-05-06T05:14:51.902Z,50.29
2018-05-06T05:15:32.429Z,50.58
2018-05-06T05:16:12.936Z,50.58
2018-05-06T05:16:53.459Z,50.48
2018-05-06T05:17:34.012Z,50.6
2018-05-06T05:18:14.504Z,50.22
2018-05-06T05:18:55.023Z,50.32
2018-05-06T05:19:35.556Z,49.93
2018-05-06T05:20:16.083Z,49.93
2018-05-06T05:20:56.693Z,49.93
2018-05-06T05:21:37.125Z,50.03
2018-05-06T05:22:17.649Z,49.74
2018-05-06T05:22:58.182Z,49.65
2018-05-06T05:23:38.713Z,49.93
2018-05-06T05:24:19.650Z,50.03
2018-05-06T05:25:00.177Z,50.12
2018-05-06T05:25:40.700Z,50.22
2018-05-06T05:26:21.227Z,50.22
2018-05-06T05:27:01.758Z,50.15
2018-05-06T05:27:42.282Z,50.15
2018-05-06T05:28:22.818Z,50.24
2018-05-06T05:29:04.081Z,50.24
2018-05-06T05:29:43.948Z,49.96
2018-05-06T05:30:24.709Z,49.48
2018-05-06T05:31:05.228Z,49.48
2018-05-06T05:31:45.748Z,49.57
2018-05-06T05:32:26.269Z,49.76
2018-05-06T05:33:06.864Z,49.31
2018-05-06T05:36:21.132Z,49.5
2018-05-06T05:37:01.663Z,49.31
2018-05-06T05:37:42.184Z,49.02
2018-05-06T05:38:22.696Z,49.12
2018-05-06T05:39:03.250Z,49.21
2018-05-06T05:39:43.743Z,49.21
2018-05-06T05:40:24.263Z,49.31
2018-05-06T05:41:04.797Z,49.31
2018-05-06T05:41:45.321Z,49.41
2018-05-06T05:42:25.842Z,49.21
2018-05-06T05:43:06.389Z,49.05
2018-05-06T05:43:46.905Z,49.02
2018-05-06T05:44:27.432Z,49.15
2018-05-06T05:45:07.957Z,48.85
2018-05-06T05:45:48.482Z,48.76
2018-05-06T05:46:29.004Z,48.66
2018-05-06T05:47:09.529Z,48.76
2018-05-06T05:47:50.088Z,48.85
2018-05-06T05:48:30.573Z,49.05
2018-05-06T05:49:11.099Z,48.85
2018-05-06T05:49:51.631Z,49.17
2018-05-06T05:50:32.151Z,48.97
2018-05-06T05:51:12.677Z,48.88
2018-05-06T05:51:53.205Z,48.79
2018-05-06T05:52:33.732Z,48.59
2018-05-06T05:53:14.254Z,48.59
2018-05-06T05:53:55.016Z,48.81
2018-05-06T05:54:35.543Z,48.52
2018-05-06T05:55:16.051Z,48.43
2018-05-06T05:55:56.587Z,48.52
2018-05-06T05:56:37.101Z,48.52
2018-05-06T05:57:17.620Z,48.13
2018-05-06T05:57:58.141Z,47.85
2018-05-06T05:58:38.638Z,47.75
2018-05-06T05:59:19.167Z,48.07
2018-05-06T05:59:59.690Z,47.77
2018-05-06T06:00:40.212Z,47.68
2018-05-06T06:01:21.458Z,47.58
2018-05-06T06:02:02.493Z,47.89
2018-05-06T06:02:42.990Z,47.31
2018-05-06T06:03:23.511Z,47.41
2018-05-06T06:04:04.028Z,47.22
2018-05-06T06:04:44.547Z,47.03
2018-05-06T06:05:25.060Z,47.31
2018-05-06T06:06:05.592Z,47.24
2018-05-06T06:06:46.143Z,47.24
2018-05-06T06:07:26.649Z,47.27
2018-05-06T06:08:07.155Z,46.86
2018-05-06T06:08:47.674Z,46.69
2018-05-06T06:09:28.217Z,46.69
2018-05-06T06:10:08.738Z,46.42
2018-05-06T06:10:49.271Z,46.04
2018-05-06T06:11:29.790Z,46.33
2018-05-06T06:12:10.311Z,46.23
2018-05-06T06:12:50.822Z,45.68
2018-05-06T06:13:31.346Z,45.97
2018-05-06T06:14:11.878Z,45.58
2018-05-06T06:14:52.396Z,45.39
2018-05-06T06:15:32.997Z,45.7
2018-05-06T06:16:13.445Z,45.7
2018-05-06T06:16:53.972Z,45.31
2018-05-06T06:17:34.536Z,45.21
2018-05-06T06:18:15.008Z,45.24
2018-05-06T06:18:55.544Z,45.04
2018-05-06T06:19:36.079Z,44.95
2018-05-06T06:20:16.617Z,44.85
2018-05-06T06:20:57.370Z,45.14
2018-05-06T06:21:37.877Z,44.78
2018-05-06T06:22:18.413Z,44.87
2018-05-06T06:22:58.924Z,44.87
2018-05-06T06:23:39.503Z,44.97
2018-05-06T06:24:20.005Z,44.9
2018-05-06T06:25:00.519Z,45
2018-05-06T06:25:41.029Z,44.7
2018-05-06T06:26:21.520Z,44.51
2018-05-06T06:27:02.053Z,44.63
2018-05-06T06:27:42.570Z,44.53
2018-05-06T06:28:23.103Z,44.15
2018-05-06T06:29:03.625Z,44.15
2018-05-06T06:29:44.500Z,43.95
2018-05-06T06:30:25.037Z,44.26
2018-05-06T06:31:05.550Z,43.98
2018-05-06T06:31:46.068Z,44.07
2018-05-06T06:32:26.588Z,44.07
2018-05-06T06:33:07.115Z,44.19
2018-05-06T06:33:47.710Z,43.8
2018-05-06T06:34:28.276Z,43.8
2018-05-06T06:35:08.797Z,43.9
2018-05-06T06:35:49.315Z,43.82
2018-05-06T06:36:29.865Z,43.92
2018-05-06T06:37:10.401Z,43.73
2018-05-06T06:37:51.130Z,43.92
2018-05-06T06:38:31.642Z,44.13
2018-05-06T06:39:12.176Z,43.46
2018-05-06T06:39:52.696Z,43.37
2018-05-06T06:40:33.231Z,43.19
2018-05-06T06:41:13.742Z,43.29
2018-05-06T06:41:54.277Z,43.19
2018-05-06T06:42:34.791Z,43.48
2018-05-06T06:43:15.313Z,43.31
2018-05-06T06:43:55.842Z,43.31
2018-05-06T06:44:36.363Z,43.02
2018-05-06T06:45:16.890Z,42.94
2018-05-06T06:45:57.412Z,42.75
2018-05-06T06:46:38.091Z,42.75
2018-05-06T06:47:18.614Z,42.77
2018-05-06T06:47:59.241Z,42.48
2018-05-06T06:48:40.024Z,42.67
2018-05-06T06:49:21.273Z,42.4
2018-05-06T06:50:01.838Z,42.02
2018-05-06T06:50:42.274Z,41.64
2018-05-06T06:51:22.757Z,41.84
2018-05-06T06:52:03.312Z,41.38
2018-05-06T06:52:43.816Z,41.38
2018-05-06T06:53:24.344Z,41.3
2018-05-06T06:54:04.876Z,40.62
2018-05-06T06:54:45.393Z,40.44
2018-05-06T06:55:25.925Z,40.44
2018-05-06T06:56:06.484Z,40.17
2018-05-06T06:56:47.018Z,40.17
2018-05-06T06:57:27.775Z,40
2018-05-06T06:58:08.131Z,40.11
2018-05-06T06:58:48.653Z,39.16
2018-05-06T06:59:29.179Z,38.89
2018-05-06T07:00:09.719Z,38.49
2018-05-06T07:00:50.239Z,38.02
2018-05-06T07:01:30.932Z,37.75
2018-05-06T07:02:11.456Z,37.38
2018-05-06T07:02:51.987Z,37.29
2018-05-06T07:03:32.586Z,37.11
2018-05-06T07:04:13.347Z,37.01
2018-05-06T07:04:54.005Z,36.93
2018-05-06T07:05:34.538Z,36.46
2018-05-06T07:06:15.056Z,35.99
2018-05-06T07:06:55.591Z,36
2018-05-06T07:07:36.258Z,34.84
2018-05-06T07:08:17.102Z,34.3
2018-05-06T07:08:57.667Z,33.62
2018-05-06T07:09:38.192Z,32.87
2018-05-06T07:10:18.679Z,32.41
2018-05-06T07:10:59.205Z,31.56
2018-05-06T07:11:40.024Z,30.9
2018-05-06T07:12:20.658Z,30.04
2018-05-06T07:13:01.374Z,29.86
2018-05-06T07:13:41.883Z,29.6
2018-05-06T07:14:22.414Z,29.32
2018-05-06T07:15:03.004Z,28.83
2018-05-06T07:15:43.594Z,28.25
2018-05-06T07:16:24.054Z,28.27
2018-05-06T07:17:04.582Z,27.89
2018-05-06T07:17:45.106Z,27.62
2018-05-06T07:18:25.653Z,27.51
2018-05-06T07:19:06.204Z,27.43
2018-05-06T07:19:46.956Z,27.15
2018-05-06T07:20:27.480Z,27.06
2018-05-06T07:21:08.031Z,26.87
2018-05-06T07:21:48.594Z,26.87
2018-05-06T07:22:29.127Z,26.98
2018-05-06T07:23:09.720Z,26.79
2018-05-06T07:23:50.239Z,27.09
2018-05-06T07:24:30.764Z,27.57
2018-05-06T07:25:11.298Z,27.95
2018-05-06T07:25:51.836Z,27.87
2018-05-06T07:26:33.470Z,27.98
2018-05-06T07:27:14.302Z,28.19
2018-05-06T07:27:54.832Z,28.09
2018-05-06T07:28:35.369Z,28.5
2018-05-06T07:29:15.902Z,28.12
2018-05-06T07:29:56.516Z,28.53
2018-05-06T07:30:36.970Z,28.16
2018-05-06T07:31:17.815Z,27.58
2018-05-06T07:31:58.634Z,27.3
2018-05-06T07:32:39.266Z,26.93
2018-05-06T07:33:20.002Z,26.06
2018-05-06T07:34:00.645Z,25.68
2018-05-06T07:34:41.168Z,25.41
2018-05-06T07:35:21.921Z,25.03
2018-05-06T07:36:02.404Z,24.95
2018-05-06T07:36:42.916Z,24.77
2018-05-06T07:37:23.658Z,23.97
2018-05-06T07:38:04.194Z,23.9
2018-05-06T07:38:44.727Z,24.22
2018-05-06T07:39:25.417Z,23.83
2018-05-06T07:40:05.953Z,23.74
2018-05-06T07:40:46.497Z,23.15
2018-05-06T07:41:27.208Z,23.36
2018-05-06T07:42:08.065Z,23.37
2018-05-06T07:42:49.521Z,23.09
2018-05-06T07:43:30.064Z,23.1
2018-05-06T07:44:10.602Z,23.21
2018-05-06T07:44:51.136Z,23.22
2018-05-06T07:45:31.664Z,23.14
2018-05-06T07:46:12.189Z,22.96
2018-05-06T07:46:52.731Z,22.66
2018-05-06T07:47:33.272Z,22.58
2018-05-06T07:48:13.819Z,22.19
2018-05-06T07:48:54.641Z,22.41
2018-05-06T07:49:35.157Z,22.33
2018-05-06T07:50:15.696Z,21.73
2018-05-06T07:50:56.824Z,22.05
2018-05-06T07:51:37.330Z,21.77
2018-05-06T07:52:17.919Z,21.47
2018-05-06T07:52:58.448Z,21.49
2018-05-06T07:53:39.241Z,21.5
2018-05-06T07:54:19.787Z,21.11
2018-05-06T07:55:00.788Z,20.92
2018-05-06T07:55:41.321Z,20.83
2018-05-06T07:56:21.865Z,20.84
2018-05-06T07:57:02.404Z,20.45
2018-05-06T07:57:42.939Z,20.35
2018-05-06T07:58:23.477Z,19.95
2018-05-06T07:59:04.017Z,20.27
2018-05-06T07:59:44.563Z,19.97
2018-05-06T08:00:25.107Z,20.18
2018-05-06T08:01:05.640Z,20.19
2018-05-06T08:01:46.177Z,19.9
2018-05-06T08:02:26.724Z,19.81
2018-05-06T08:03:07.265Z,19.82
2018-05-06T08:03:47.810Z,19.32
2018-05-06T08:04:28.347Z,19.73
2018-05-06T08:05:08.888Z,19.02
2018-05-06T08:05:49.421Z,19.34
2018-05-06T08:06:29.966Z,19.23
2018-05-06T08:07:10.498Z,19.15
2018-05-06T08:07:51.036Z,19.26
2018-05-06T08:08:31.579Z,18.85
2018-05-06T08:09:12.131Z,18.96
2018-05-06T08:09:52.673Z,18.76
2018-05-06T08:10:33.194Z,18.76
2018-05-06T08:11:13.755Z,18.76
2018-05-06T08:11:54.291Z,19.08
2018-05-06T08:12:34.833Z,18.88
2018-05-06T08:13:15.374Z,18.77
2018-05-06T08:13:55.914Z,18.68
2018-05-06T08:14:36.443Z,18.58
2018-05-06T08:15:16.989Z,18.28
2018-05-06T08:15:57.537Z,18.06
2018-05-06T08:16:38.145Z,18.49
2018-05-06T08:17:18.627Z,18.16
2018-05-06T08:17:59.161Z,18.59
2018-05-06T08:18:39.687Z,18.29
2018-05-06T08:19:20.228Z,18.08
2018-05-06T08:20:00.773Z,17.97
2018-05-06T08:20:41.327Z,18.09
2018-05-06T08:21:21.866Z,18.1
2018-05-06T08:22:02.405Z,17.89
2018-05-06T08:22:42.945Z,17.89
2018-05-06T08:23:23.489Z,17.59
2018-05-06T08:24:04.033Z,17.7
2018-05-06T08:24:44.583Z,17.19
2018-05-06T08:25:25.137Z,17.21
2018-05-06T08:26:05.672Z,17.11
2018-05-06T08:26:46.213Z,17.02
2018-05-06T08:27:26.751Z,16.5
2018-05-06T08:28:07.294Z,16.72
2018-05-06T08:28:47.843Z,16.41
2018-05-06T08:29:28.387Z,16.31
2018-05-06T08:30:08.914Z,16.64
2018-05-06T08:30:49.458Z,16.64
2018-05-06T08:31:30.006Z,16.33
2018-05-06T08:32:10.551Z,16.23
2018-05-06T08:32:51.096Z,16.23
2018-05-06T08:33:31.627Z,16.13
2018-05-06T08:34:12.166Z,16.43
2018-05-06T08:34:52.706Z,16.13
2018-05-06T08:35:33.251Z,16.44
2018-05-06T08:36:13.798Z,16.45
2018-05-06T08:36:54.341Z,16.46
2018-05-06T08:37:34.949Z,16.25
2018-05-06T08:38:15.427Z,16.16
2018-05-06T08:38:55.969Z,15.94
2018-05-06T08:39:36.516Z,16.16
2018-05-06T08:40:17.059Z,15.84
2018-05-06T08:40:57.605Z,15.64
2018-05-06T08:41:38.207Z,15.86
2018-05-06T08:42:18.695Z,15.97
2018-05-06T08:42:59.244Z,15.97
2018-05-06T08:43:39.788Z,15.66
2018-05-06T08:44:20.312Z,16.07
2018-05-06T08:45:00.858Z,15.87
2018-05-06T08:45:41.461Z,15.77